Time;durP1;ratioP1;P1;durP2;ratioP2;P2;SDS_P1;SDS_P2;PMS_P1;PMS_P2;Temp;Humidity;BMP_temperature;BMP_pressure;BME280_temperature;BME280_humidity;BME280_pressure;Samples;Min_cycle;Max_cycle;Signal;HPM_P1;HPM_P2
2023/09/17 00:00:07;;;;;;;2.03;1.67;;;22.50;99.90;;;;;;5014795;28;20022;-42
2023/09/17 00:02:33;;;;;;;3.20;1.80;;;22.50;99.90;;;;;;5014569;28;20029;-39
2023/09/17 00:04:58;;;;;;;3.00;1.70;;;22.50;99.90;;;;;;5014641;28;20056;-43
2023/09/17 00:07:24;;;;;;;2.47;1.70;;;22.50;99.90;;;;;;5014550;28;20057;-37
2023/09/17 00:09:49;;;;;;;2.30;1.80;;;22.50;99.90;;;;;;5014674;28;20030;-37
2023/09/17 00:12:15;;;;;;;4.38;1.73;;;22.50;99.90;;;;;;5014616;28;20025;-39
2023/09/17 00:14:41;;;;;;;2.20;1.75;;;22.50;99.90;;;;;;5014398;28;20510;-38
2023/09/17 00:17:07;;;;;;;2.30;1.70;;;22.60;99.90;;;;;;5014281;28;20025;-40
2023/09/17 00:19:32;;;;;;;2.63;1.95;;;22.50;99.90;;;;;;5014379;28;20030;-42
2023/09/17 00:21:58;;;;;;;2.00;1.80;;;22.50;99.90;;;;;;5014588;28;20080;-40
2023/09/17 00:24:24;;;;;;;4.50;1.88;;;22.50;99.90;;;;;;5014300;28;20443;-41
2023/09/17 00:26:50;;;;;;;2.42;1.77;;;22.50;99.90;;;;;;5014268;28;20025;-43
2023/09/17 00:29:16;;;;;;;3.75;1.80;;;22.50;99.90;;;;;;5014157;28;20026;-41
2023/09/17 00:31:42;;;;;;;2.47;1.80;;;22.50;99.90;;;;;;5014056;28;20399;-40
2023/09/17 00:34:07;;;;;;;2.60;1.92;;;22.50;99.90;;;;;;5014032;28;20030;-41
2023/09/17 00:36:33;;;;;;;3.22;2.10;;;22.50;99.90;;;;;;5014067;28;20025;-43
2023/09/17 00:38:59;;;;;;;2.35;1.88;;;22.50;99.90;;;;;;5013927;28;20132;-40
2023/09/17 00:41:25;;;;;;;4.05;1.80;;;22.50;99.90;;;;;;5014052;28;20117;-42
2023/09/17 00:43:51;;;;;;;2.17;1.98;;;22.50;99.90;;;;;;5013951;28;20029;-40
2023/09/17 00:46:19;;;;;;;2.38;1.70;;;22.50;99.90;;;;;;5013649;28;20026;-41
2023/09/17 00:48:45;;;;;;;2.10;1.90;;;22.50;99.90;;;;;;5013804;28;20062;-42
2023/09/17 00:51:11;;;;;;;1.90;1.70;;;22.50;99.90;;;;;;5013891;28;20104;-41
2023/09/17 00:53:37;;;;;;;3.85;2.00;;;22.50;99.90;;;;;;5013870;28;20030;-37
2023/09/17 00:56:03;;;;;;;1.80;1.38;;;22.50;99.90;;;;;;5013660;28;20022;-41
2023/09/17 00:58:33;;;;;;;2.00;1.80;;;22.50;99.90;;;;;;5014129;28;20052;-38
2023/09/17 01:00:59;;;;;;;2.17;1.95;;;22.50;99.90;;;;;;5013569;28;20535;-41
2023/09/17 01:03:28;;;;;;;2.47;1.60;;;22.50;99.90;;;;;;5013670;28;20506;-41
2023/09/17 01:05:54;;;;;;;1.92;1.70;;;22.50;99.90;;;;;;4996065;28;20073;-41
2023/09/17 01:08:20;;;;;;;3.53;1.90;;;22.50;99.90;;;;;;5013854;28;20463;-41
2023/09/17 01:10:48;;;;;;;2.20;2.00;;;22.50;99.90;;;;;;5013463;28;20032;-39
2023/09/17 01:13:14;;;;;;;2.38;2.00;;;22.50;99.90;;;;;;5013824;28;20026;-40
2023/09/17 01:15:40;;;;;;;3.00;2.10;;;22.50;99.90;;;;;;5013676;28;20405;-40
2023/09/17 01:18:09;;;;;;;2.33;1.95;;;22.40;99.90;;;;;;5013240;28;20029;-43
2023/09/17 01:21:07;;;;;;;1.90;1.70;;;22.40;99.90;;;;;;5013300;28;20029;-39
2023/09/17 01:23:50;;;;;;;2.63;2.00;;;22.40;99.90;;;;;;5013252;28;20018;-39
2023/09/17 01:26:26;;;;;;;3.88;1.88;;;22.50;99.90;;;;;;5013041;28;20080;-45
2023/09/17 01:28:56;;;;;;;2.05;1.85;;;22.50;99.90;;;;;;5013211;28;20022;-41
2023/09/17 01:31:23;;;;;;;2.55;1.90;;;22.40;99.90;;;;;;5013202;28;20018;-43
2023/09/17 01:33:49;;;;;;;2.10;1.90;;;22.50;99.90;;;;;;5013498;28;20101;-40
2023/09/17 01:36:21;;;;;;;2.38;1.90;;;22.40;99.90;;;;;;5012987;28;20358;-46
2023/09/17 01:38:58;;;;;;;2.00;1.80;;;22.40;99.90;;;;;;5012852;28;20041;-39
2023/09/17 01:41:27;;;;;;;1.83;1.63;;;22.40;99.90;;;;;;5012976;28;20395;-46
2023/09/17 01:43:54;;;;;;;2.70;1.90;;;22.40;99.90;;;;;;5012862;28;20164;-43
2023/09/17 01:46:22;;;;;;;2.25;1.90;;;22.40;99.90;;;;;;5013183;28;20376;-40
2023/09/17 01:48:49;;;;;;;2.33;2.03;;;22.40;99.90;;;;;;5012539;28;20049;-39
2023/09/17 01:51:16;;;;;;;2.33;1.90;;;22.40;99.90;;;;;;5012691;28;20434;-44
2023/09/17 01:53:41;;;;;;;2.22;1.90;;;22.40;99.90;;;;;;5013147;28;20025;-38
2023/09/17 01:56:07;;;;;;;2.67;1.90;;;22.40;99.90;;;;;;5012471;28;20026;-39
2023/09/17 01:58:33;;;;;;;2.30;2.10;;;22.40;99.90;;;;;;5012931;28;20112;-39
2023/09/17 02:00:59;;;;;;;2.35;1.60;;;22.40;99.90;;;;;;5012627;28;20406;-39
2023/09/17 02:03:26;;;;;;;2.20;1.80;;;22.40;99.90;;;;;;5012458;28;20049;-39
2023/09/17 02:05:51;;;;;;;2.22;2.00;;;22.40;99.90;;;;;;5012274;28;20077;-38
2023/09/17 02:08:17;;;;;;;2.15;1.70;;;22.40;99.90;;;;;;5012388;28;20026;-39
2023/09/17 02:10:43;;;;;;;4.78;1.77;;;22.40;99.90;;;;;;5012465;28;20116;-38
2023/09/17 02:13:08;;;;;;;2.42;1.90;;;22.40;99.90;;;;;;5012477;28;20521;-38
2023/09/17 02:15:34;;;;;;;2.20;2.00;;;22.40;99.90;;;;;;5011811;28;20526;-38
2023/09/17 02:17:59;;;;;;;3.42;1.80;;;22.40;99.90;;;;;;5012152;28;20798;-40
2023/09/17 02:20:25;;;;;;;3.53;2.20;;;22.40;99.90;;;;;;5012543;28;20033;-39
2023/09/17 02:22:51;;;;;;;2.05;1.85;;;22.40;99.90;;;;;;5012227;28;20026;-41
2023/09/17 02:25:16;;;;;;;2.78;2.00;;;22.40;99.90;;;;;;5011992;28;20545;-37
2023/09/17 02:27:43;;;;;;;3.67;2.17;;;22.30;99.90;;;;;;5012281;28;20036;-39
2023/09/17 02:30:09;;;;;;;3.45;1.95;;;22.40;99.90;;;;;;5012048;28;20494;-37
2023/09/17 02:32:37;;;;;;;1.98;1.75;;;22.30;99.90;;;;;;5011962;28;20026;-37
2023/09/17 02:35:05;;;;;;;4.40;1.90;;;22.30;99.90;;;;;;5011920;28;20017;-38
2023/09/17 02:37:30;;;;;;;2.10;1.90;;;22.30;99.90;;;;;;5011723;28;20026;-39
2023/09/17 02:39:57;;;;;;;2.75;2.30;;;22.30;99.90;;;;;;5012316;28;20042;-42
2023/09/17 02:42:24;;;;;;;2.65;1.90;;;22.30;99.90;;;;;;5011911;28;20022;-40
2023/09/17 02:44:50;;;;;;;2.13;1.92;;;22.30;99.90;;;;;;5011794;28;20476;-36
2023/09/17 02:47:16;;;;;;;3.88;2.50;;;22.30;99.90;;;;;;5011685;28;20120;-39
2023/09/17 02:49:41;;;;;;;2.33;2.10;;;22.30;99.90;;;;;;5011765;28;20033;-40
2023/09/17 02:52:07;;;;;;;2.38;2.17;;;22.30;99.90;;;;;;5011784;28;20022;-44
2023/09/17 02:54:34;;;;;;;2.85;1.98;;;22.30;99.90;;;;;;5011666;28;20487;-41
2023/09/17 02:56:59;;;;;;;2.38;1.98;;;22.30;99.90;;;;;;5011604;28;20099;-43
2023/09/17 02:59:25;;;;;;;2.60;1.98;;;22.30;99.90;;;;;;5011550;28;20492;-42
2023/09/17 03:01:51;;;;;;;3.15;1.98;;;22.30;99.90;;;;;;5011645;28;20033;-41
2023/09/17 03:04:17;;;;;;;2.90;2.10;;;22.30;99.90;;;;;;5011581;28;20073;-40
2023/09/17 03:06:42;;;;;;;4.30;2.25;;;22.30;99.90;;;;;;5011485;28;20064;-40
2023/09/17 03:09:11;;;;;;;2.50;2.10;;;22.30;99.90;;;;;;5011439;28;20548;-41
2023/09/17 03:11:39;;;;;;;3.30;2.03;;;22.30;99.90;;;;;;5011475;28;20025;-37
2023/09/17 03:14:06;;;;;;;2.80;2.20;;;22.30;99.90;;;;;;5011401;28;20032;-38
2023/09/17 03:16:33;;;;;;;2.85;1.98;;;22.30;99.90;;;;;;4993757;28;20025;-37
2023/09/17 03:18:59;;;;;;;3.13;2.00;;;22.30;99.90;;;;;;5011515;28;20472;-43
2023/09/17 03:21:25;;;;;;;2.80;2.13;;;22.30;99.90;;;;;;5011527;28;20057;-37
2023/09/17 03:23:51;;;;;;;2.33;2.10;;;22.30;99.90;;;;;;5011469;28;20050;-41
2023/09/17 03:26:16;;;;;;;4.18;1.98;;;22.30;99.90;;;;;;5011956;28;20526;-39
2023/09/17 03:28:42;;;;;;;3.58;2.40;;;22.30;99.90;;;;;;5015110;28;20108;-38
2023/09/17 03:31:07;;;;;;;2.75;2.30;;;22.30;99.90;;;;;;5015367;28;20026;-39
2023/09/17 03:33:33;;;;;;;3.85;2.50;;;22.30;99.90;;;;;;5015560;28;20036;-37
2023/09/17 03:36:00;;;;;;;2.83;2.22;;;22.30;99.90;;;;;;5015147;28;20054;-38
2023/09/17 03:38:25;;;;;;;1.83;1.67;;;22.20;99.90;;;;;;5015557;28;20049;-40
2023/09/17 03:40:51;;;;;;;3.80;2.20;;;22.30;99.90;;;;;;5015156;28;20492;-36
2023/09/17 03:43:17;;;;;;;3.20;2.38;;;22.20;99.90;;;;;;5015474;28;20057;-44
2023/09/17 03:45:42;;;;;;;3.45;2.38;;;22.30;99.90;;;;;;5014923;28;20037;-41
2023/09/17 03:48:08;;;;;;;2.47;2.17;;;22.20;99.90;;;;;;5014933;28;20097;-41
2023/09/17 03:50:39;;;;;;;3.40;2.30;;;22.30;99.90;;;;;;5015048;28;20430;-40
2023/09/17 03:53:05;;;;;;;2.42;2.08;;;22.30;99.90;;;;;;5015143;28;20386;-37
2023/09/17 03:55:33;;;;;;;4.82;2.28;;;22.30;99.90;;;;;;5014772;28;20103;-36
2023/09/17 03:57:59;;;;;;;2.97;2.30;;;22.30;99.90;;;;;;5014837;28;20018;-42
2023/09/17 04:00:25;;;;;;;3.65;2.45;;;22.20;99.90;;;;;;5014920;28;20102;-37
2023/09/17 04:02:52;;;;;;;3.53;1.85;;;22.20;99.90;;;;;;5014836;28;20108;-40
2023/09/17 04:05:18;;;;;;;4.28;2.30;;;22.20;99.90;;;;;;5014571;28;20029;-43
2023/09/17 04:07:45;;;;;;;2.42;2.10;;;22.30;99.90;;;;;;5014690;28;20029;-45
2023/09/17 04:10:12;;;;;;;2.17;1.98;;;22.20;99.90;;;;;;5014576;28;20107;-41
2023/09/17 04:12:40;;;;;;;3.22;2.25;;;22.20;99.90;;;;;;4996907;28;20391;-40
2023/09/17 04:15:12;;;;;;;2.40;2.20;;;22.20;99.90;;;;;;5014506;28;20038;-39
2023/09/17 04:17:41;;;;;;;3.50;2.40;;;22.20;99.90;;;;;;5014478;28;20495;-43
2023/09/17 04:20:11;;;;;;;2.35;2.08;;;22.20;99.90;;;;;;5014503;28;20065;-41
2023/09/17 04:22:37;;;;;;;2.75;2.30;;;22.20;99.90;;;;;;5014576;28;20241;-40
2023/09/17 04:25:04;;;;;;;2.35;2.00;;;22.20;99.90;;;;;;5014487;28;20398;-37
2023/09/17 04:27:30;;;;;;;3.03;2.17;;;22.20;99.90;;;;;;5014264;28;20046;-40
2023/09/17 04:29:56;;;;;;;4.43;2.17;;;22.20;99.90;;;;;;5014249;28;20026;-37
2023/09/17 04:32:22;;;;;;;3.28;2.40;;;22.20;99.90;;;;;;5014301;28;20034;-39
2023/09/17 04:34:47;;;;;;;3.17;2.40;;;22.20;99.90;;;;;;5014103;28;20030;-42
2023/09/17 04:37:19;;;;;;;4.75;2.35;;;22.20;99.90;;;;;;5014070;28;20029;-42
2023/09/17 04:39:46;;;;;;;3.33;2.30;;;22.20;99.90;;;;;;5014002;28;20134;-39
2023/09/17 04:42:12;;;;;;;3.38;2.22;;;22.20;99.90;;;;;;5014087;28;20149;-41
2023/09/17 04:44:37;;;;;;;2.58;2.38;;;22.20;99.90;;;;;;5013944;28;20033;-41
2023/09/17 04:47:03;;;;;;;2.67;2.30;;;22.20;99.90;;;;;;5013951;28;20038;-39
2023/09/17 04:49:31;;;;;;;4.57;2.45;;;22.20;99.90;;;;;;5013827;28;20080;-36
2023/09/17 04:51:57;;;;;;;2.72;2.17;;;22.20;99.90;;;;;;5013804;28;20014;-42
2023/09/17 04:54:23;;;;;;;5.07;2.40;;;22.20;99.90;;;;;;4996118;28;20041;-41
2023/09/17 04:56:49;;;;;;;4.20;2.72;;;22.20;99.90;;;;;;5013760;28;20458;-44
2023/09/17 04:59:15;;;;;;;2.75;2.30;;;22.10;99.90;;;;;;5013899;28;20030;-46
2023/09/17 05:01:41;;;;;;;3.33;2.33;;;22.20;99.90;;;;;;5013780;28;20502;-44
2023/09/17 05:04:07;;;;;;;6.18;2.30;;;22.20;99.90;;;;;;5013802;28;20033;-41
2023/09/17 05:06:33;;;;;;;3.53;2.40;;;22.10;99.90;;;;;;5013416;28;20030;-41
2023/09/17 05:08:58;;;;;;;4.07;2.40;;;22.20;99.90;;;;;;5013354;28;20057;-44
2023/09/17 05:11:24;;;;;;;5.60;2.50;;;22.10;99.90;;;;;;5013583;28;20032;-40
2023/09/17 05:13:50;;;;;;;3.03;2.28;;;22.10;99.90;;;;;;5013501;28;20101;-39
2023/09/17 05:16:16;;;;;;;2.40;2.20;;;22.10;99.90;;;;;;5013265;28;20053;-38
2023/09/17 05:18:43;;;;;;;8.85;2.60;;;22.10;99.90;;;;;;5013345;28;20029;-40
2023/09/17 05:21:09;;;;;;;2.90;2.38;;;22.10;99.90;;;;;;5011903;28;20084;-42
2023/09/17 05:23:35;;;;;;;3.08;2.10;;;22.10;99.90;;;;;;5013527;28;20038;-39
2023/09/17 05:26:01;;;;;;;2.58;2.38;;;22.10;99.90;;;;;;5013008;28;20029;-39
2023/09/17 05:28:27;;;;;;;2.88;2.42;;;22.10;99.90;;;;;;5013078;28;20034;-40
2023/09/17 05:30:55;;;;;;;4.18;2.13;;;22.10;99.90;;;;;;5013184;28;20014;-42
2023/09/17 05:33:21;;;;;;;3.67;2.47;;;22.10;99.90;;;;;;5013199;28;20387;-45
2023/09/17 05:35:47;;;;;;;3.45;2.40;;;22.10;99.90;;;;;;5012822;28;20029;-41
2023/09/17 05:38:13;;;;;;;5.82;2.65;;;22.10;99.90;;;;;;5012804;28;20030;-42
2023/09/17 05:40:38;;;;;;;3.85;2.53;;;22.10;99.90;;;;;;5012922;28;20025;-39
2023/09/17 05:43:04;;;;;;;3.72;2.60;;;22.10;99.90;;;;;;5012899;28;20025;-44
2023/09/17 05:45:30;;;;;;;3.03;2.65;;;22.10;99.90;;;;;;5012723;28;20014;-41
2023/09/17 05:47:55;;;;;;;4.47;2.17;;;22.10;99.90;;;;;;5012852;28;20049;-38
2023/09/17 05:50:21;;;;;;;2.50;2.30;;;22.10;99.90;;;;;;5012159;28;20030;-39
2023/09/17 05:52:47;;;;;;;4.13;2.50;;;22.10;99.90;;;;;;5013600;28;20076;-42
2023/09/17 05:55:12;;;;;;;4.30;2.58;;;22.10;99.90;;;;;;5013372;28;20032;-40
2023/09/17 05:57:38;;;;;;;3.05;2.20;;;22.10;99.90;;;;;;5012825;28;20032;-41
2023/09/17 06:00:07;;;;;;;3.65;2.33;;;22.10;99.90;;;;;;5013142;28;20049;-41
2023/09/17 06:02:33;;;;;;;3.33;2.20;;;22.10;99.90;;;;;;5012882;28;20026;-39
2023/09/17 06:04:58;;;;;;;2.58;2.13;;;22.10;99.90;;;;;;5012431;28;20025;-43
2023/09/17 06:07:24;;;;;;;3.03;2.40;;;22.10;99.90;;;;;;5012400;28;20062;-40
2023/09/17 06:09:49;;;;;;;4.20;2.70;;;22.10;99.90;;;;;;5012455;28;20032;-39
2023/09/17 06:12:15;;;;;;;3.10;2.50;;;22.10;99.90;;;;;;5012497;28;20228;-38
2023/09/17 06:14:41;;;;;;;2.50;2.25;;;22.10;99.90;;;;;;5012303;28;20487;-36
2023/09/17 06:17:07;;;;;;;3.10;2.50;;;22.10;99.90;;;;;;5012272;28;20033;-40
2023/09/17 06:19:33;;;;;;;2.85;2.10;;;22.10;99.90;;;;;;5012129;28;20105;-41
2023/09/17 06:21:59;;;;;;;2.30;2.10;;;22.10;99.90;;;;;;5012242;28;20109;-38
2023/09/17 06:24:25;;;;;;;2.45;2.20;;;22.10;99.90;;;;;;5012118;28;20026;-41
2023/09/17 06:26:51;;;;;;;2.63;2.22;;;22.10;99.90;;;;;;5012233;28;20053;-42
2023/09/17 06:29:17;;;;;;;3.80;2.30;;;22.10;99.90;;;;;;5011998;28;20040;-38
2023/09/17 06:31:42;;;;;;;3.08;2.20;;;22.10;99.90;;;;;;5012508;28;20034;-39
2023/09/17 06:34:09;;;;;;;3.05;2.50;;;22.10;99.90;;;;;;5011941;28;20035;-40
2023/09/17 06:36:36;;;;;;;3.55;2.33;;;22.10;99.90;;;;;;5011881;28;20491;-38
2023/09/17 06:39:03;;;;;;;4.93;2.20;;;22.10;99.90;;;;;;5012054;28;20104;-37
2023/09/17 06:41:28;;;;;;;3.80;2.22;;;22.10;99.90;;;;;;5012049;28;20029;-40
2023/09/17 06:43:55;;;;;;;2.92;2.00;;;22.10;99.90;;;;;;5011955;28;20025;-43
2023/09/17 06:46:23;;;;;;;4.20;2.17;;;22.10;99.90;;;;;;4994088;28;20045;-41
2023/09/17 06:48:52;;;;;;;2.50;2.30;;;22.10;99.90;;;;;;5011658;28;20029;-37
2023/09/17 06:51:19;;;;;;;2.67;2.10;;;22.10;99.90;;;;;;4994156;28;20487;-41
2023/09/17 06:53:45;;;;;;;2.70;2.40;;;22.10;99.90;;;;;;5011837;28;20030;-44
2023/09/17 06:56:12;;;;;;;2.95;2.13;;;22.10;99.90;;;;;;5011576;28;20026;-40
2023/09/17 06:58:37;;;;;;;3.45;2.50;;;22.10;99.90;;;;;;5011739;28;20034;-40
2023/09/17 07:01:04;;;;;;;2.95;2.40;;;22.10;99.90;;;;;;5011967;28;20026;-44
2023/09/17 07:03:31;;;;;;;3.92;2.45;;;22.10;99.90;;;;;;4994111;28;20029;-43
2023/09/17 07:05:56;;;;;;;2.80;2.05;;;22.10;99.90;;;;;;5011484;28;20033;-43
2023/09/17 07:08:22;;;;;;;2.97;1.85;;;22.20;99.90;;;;;;5011547;28;20030;-39
2023/09/17 07:10:48;;;;;;;2.40;2.20;;;22.10;99.90;;;;;;5011608;28;20022;-38
2023/09/17 07:13:13;;;;;;;2.88;2.20;;;22.20;99.90;;;;;;5011640;28;20026;-41
2023/09/17 07:15:39;;;;;;;2.75;2.33;;;22.20;99.90;;;;;;5011445;28;20380;-43
2023/09/17 07:18:07;;;;;;;3.10;2.10;;;22.10;99.90;;;;;;5011472;28;20026;-38
2023/09/17 07:20:33;;;;;;;2.13;1.90;;;22.20;99.90;;;;;;5011495;28;20041;-42
2023/09/17 07:22:59;;;;;;;2.72;2.28;;;22.20;99.90;;;;;;5011552;28;20054;-39
2023/09/17 07:25:25;;;;;;;2.17;1.98;;;22.20;99.90;;;;;;5011264;28;20056;-39
2023/09/17 07:27:50;;;;;;;2.20;1.90;;;22.20;99.90;;;;;;5011328;28;20618;-38
2023/09/17 07:30:17;;;;;;;2.53;2.08;;;22.20;99.90;;;;;;5011244;28;20049;-40
2023/09/17 07:32:43;;;;;;;2.33;2.13;;;22.20;99.90;;;;;;5011355;28;20045;-40
2023/09/17 07:35:08;;;;;;;2.20;2.00;;;22.20;99.90;;;;;;5011109;28;20475;-45
2023/09/17 07:37:34;;;;;;;2.42;2.22;;;22.20;99.90;;;;;;5011132;28;20022;-41
2023/09/17 07:40:02;;;;;;;3.05;2.25;;;22.30;99.90;;;;;;5010163;28;20030;-40
2023/09/17 07:42:27;;;;;;;2.10;1.90;;;22.30;99.90;;;;;;5011308;28;20061;-39
2023/09/17 07:44:53;;;;;;;2.35;1.83;;;22.30;99.90;;;;;;5011106;28;20116;-38
2023/09/17 07:47:19;;;;;;;2.88;2.25;;;22.30;99.90;;;;;;5011168;28;20061;-41
2023/09/17 07:49:45;;;;;;;3.40;2.10;;;22.30;99.90;;;;;;5011192;28;20100;-41
2023/09/17 07:52:12;;;;;;;2.20;2.00;;;22.30;99.90;;;;;;5011218;28;20439;-39
2023/09/17 07:54:42;;;;;;;2.20;1.90;;;22.30;99.90;;;;;;5011079;28;20491;-39
2023/09/17 07:57:09;;;;;;;2.30;1.90;;;22.30;99.90;;;;;;5011067;28;20101;-44
2023/09/17 07:59:35;;;;;;;2.88;1.92;;;22.30;99.90;;;;;;5010969;28;20036;-41
2023/09/17 08:02:02;;;;;;;2.97;2.10;;;22.30;99.90;;;;;;5011075;28;20025;-43
2023/09/17 08:04:28;;;;;;;2.13;1.92;;;22.30;99.90;;;;;;5010939;28;20022;-40
2023/09/17 08:06:54;;;;;;;2.50;1.98;;;22.30;99.90;;;;;;5010989;28;20041;-40
2023/09/17 08:09:20;;;;;;;2.45;2.00;;;22.30;99.90;;;;;;5010967;28;20026;-41
2023/09/17 08:11:45;;;;;;;3.28;2.08;;;22.30;99.90;;;;;;5011170;28;20213;-42
2023/09/17 08:14:12;;;;;;;3.03;1.88;;;22.40;99.90;;;;;;5014574;28;20100;-41
2023/09/17 08:16:37;;;;;;;2.97;2.00;;;22.40;99.90;;;;;;5014522;28;20022;-40
2023/09/17 08:19:04;;;;;;;2.20;1.90;;;22.40;99.90;;;;;;5014720;28;20022;-39
2023/09/17 08:21:30;;;;;;;2.72;2.03;;;22.40;99.90;;;;;;5015286;28;20030;-42
2023/09/17 08:23:56;;;;;;;2.83;2.08;;;22.40;99.90;;;;;;5014758;28;20034;-40
2023/09/17 08:26:22;;;;;;;3.10;2.00;;;22.40;99.90;;;;;;5014351;28;20477;-41
2023/09/17 08:28:51;;;;;;;2.25;2.05;;;22.40;99.90;;;;;;5014542;28;20118;-42
2023/09/17 08:31:17;;;;;;;3.25;2.05;;;22.40;99.90;;;;;;5014675;28;20036;-42
2023/09/17 08:33:45;;;;;;;1.85;1.70;;;22.40;99.90;;;;;;5014544;28;20026;-42
2023/09/17 08:36:11;;;;;;;3.75;2.30;;;22.50;99.90;;;;;;5014233;28;20058;-40
2023/09/17 08:38:37;;;;;;;3.42;2.08;;;22.50;99.90;;;;;;5014160;28;20030;-41
2023/09/17 08:41:06;;;;;;;2.25;1.90;;;22.50;99.90;;;;;;5014152;28;20031;-40
2023/09/17 08:43:32;;;;;;;2.80;1.95;;;22.50;99.90;;;;;;5014436;28;20022;-40
2023/09/17 08:46:01;;;;;;;2.15;1.55;;;22.50;99.90;;;;;;5014071;28;20104;-41
2023/09/17 08:48:26;;;;;;;2.00;1.80;;;22.50;99.90;;;;;;5013837;28;20034;-40
2023/09/17 08:50:54;;;;;;;1.77;1.58;;;22.50;99.90;;;;;;5014113;28;20120;-41
2023/09/17 08:53:27;;;;;;;2.58;2.17;;;22.50;99.90;;;;;;5013951;28;20021;-44
2023/09/17 08:55:57;;;;;;;1.85;1.50;;;22.50;99.90;;;;;;5013788;28;20029;-41
2023/09/17 08:58:26;;;;;;;2.58;1.88;;;22.50;99.90;;;;;;5014022;28;20034;-42
2023/09/17 09:00:55;;;;;;;3.05;1.88;;;22.60;99.90;;;;;;5014116;28;20030;-44
2023/09/17 09:03:25;;;;;;;4.38;1.85;;;22.60;99.90;;;;;;5013683;28;20026;-40
2023/09/17 09:05:55;;;;;;;2.10;1.90;;;22.60;99.90;;;;;;5013467;28;20396;-41
2023/09/17 09:08:22;;;;;;;2.72;1.70;;;22.60;99.90;;;;;;5013333;28;20387;-40
2023/09/17 09:10:50;;;;;;;3.35;1.80;;;22.60;99.90;;;;;;5013567;28;20497;-41
2023/09/17 09:13:17;;;;;;;2.25;1.80;;;22.60;99.90;;;;;;5013552;28;20022;-40
2023/09/17 09:15:43;;;;;;;4.78;1.85;;;22.60;99.90;;;;;;5013295;28;20368;-41
2023/09/17 09:18:08;;;;;;;2.28;1.88;;;22.60;99.90;;;;;;5013320;28;20029;-43
2023/09/17 09:20:36;;;;;;;2.03;1.83;;;22.60;99.90;;;;;;5013458;28;20095;-41
2023/09/17 09:23:04;;;;;;;4.10;1.90;;;22.60;99.90;;;;;;5013141;28;20058;-46
2023/09/17 09:25:30;;;;;;;3.47;1.83;;;22.60;99.90;;;;;;5012491;28;20096;-43
2023/09/17 09:28:00;;;;;;;2.85;1.75;;;22.60;99.90;;;;;;5013297;28;20452;-40
2023/09/17 09:30:25;;;;;;;3.38;2.00;;;22.60;99.90;;;;;;5013335;28;20364;-42
2023/09/17 09:32:51;;;;;;;2.33;1.60;;;22.60;99.90;;;;;;4995924;28;20048;-43
2023/09/17 09:35:17;;;;;;;4.13;1.83;;;22.70;99.90;;;;;;4995197;28;20026;-43
2023/09/17 09:37:43;;;;;;;3.28;2.00;;;22.70;99.90;;;;;;5013458;28;20034;-44
2023/09/17 09:40:09;;;;;;;3.05;1.65;;;22.70;99.90;;;;;;5013112;28;20099;-42
2023/09/17 09:42:35;;;;;;;2.38;1.65;;;22.70;99.90;;;;;;5012998;28;20061;-41
2023/09/17 09:45:03;;;;;;;3.03;1.65;;;22.70;99.90;;;;;;5012968;28;20030;-47
2023/09/17 09:47:30;;;;;;;4.13;2.00;;;22.70;99.90;;;;;;4995168;28;20037;-44
2023/09/17 09:49:56;;;;;;;2.80;1.80;;;22.70;99.90;;;;;;5012686;28;20169;-43
2023/09/17 09:52:24;;;;;;;5.32;2.03;;;22.70;99.90;;;;;;5012771;28;20014;-42
2023/09/17 09:54:50;;;;;;;2.13;1.60;;;22.70;99.90;;;;;;5012657;28;20014;-43
2023/09/17 09:57:18;;;;;;;3.22;1.90;;;22.70;99.90;;;;;;5012500;28;20033;-44
2023/09/17 09:59:46;;;;;;;4.00;1.83;;;22.80;99.90;;;;;;5012718;28;20479;-39
2023/09/17 10:02:15;;;;;;;3.05;1.60;;;22.80;99.90;;;;;;5013010;28;20040;-40
2023/09/17 10:04:42;;;;;;;2.60;1.70;;;22.80;99.90;;;;;;5012874;28;20026;-40
2023/09/17 10:07:08;;;;;;;2.53;1.67;;;22.80;99.90;;;;;;5012545;28;20032;-40
2023/09/17 10:09:35;;;;;;;4.68;2.28;;;22.80;99.90;;;;;;5012508;28;20049;-41
2023/09/17 10:12:01;;;;;;;3.38;1.63;;;22.80;99.90;;;;;;5012465;28;20022;-40
2023/09/17 10:14:27;;;;;;;1.85;1.52;;;22.80;99.90;;;;;;5012276;28;20029;-40
2023/09/17 10:16:54;;;;;;;3.38;1.90;;;22.80;99.90;;;;;;5012502;28;20104;-40
2023/09/17 10:19:22;;;;;;;2.85;1.80;;;22.80;99.90;;;;;;5012245;28;20084;-40
2023/09/17 10:21:48;;;;;;;2.28;1.67;;;22.80;99.90;;;;;;4994677;28;20092;-40
2023/09/17 10:24:17;;;;;;;2.28;1.70;;;22.80;99.90;;;;;;4994648;28;20057;-43
2023/09/17 10:26:44;;;;;;;2.47;1.42;;;22.80;99.90;;;;;;5012109;28;20029;-42
2023/09/17 10:29:12;;;;;;;2.92;1.80;;;22.80;99.90;;;;;;5012489;28;20030;-40
2023/09/17 10:31:39;;;;;;;3.25;1.88;;;22.80;99.90;;;;;;5011991;28;20032;-41
2023/09/17 10:34:05;;;;;;;4.35;1.63;;;22.80;99.90;;;;;;5012218;28;20018;-42
2023/09/17 10:36:33;;;;;;;4.68;1.80;;;22.80;99.90;;;;;;5011870;28;20022;-40
2023/09/17 10:38:59;;;;;;;2.78;1.50;;;22.80;99.90;;;;;;5012060;28;20121;-44
2023/09/17 10:41:29;;;;;;;1.95;1.60;;;22.90;99.90;;;;;;5012348;28;20030;-43
2023/09/17 10:43:57;;;;;;;3.33;1.70;;;22.90;99.90;;;;;;5012079;28;20041;-41
2023/09/17 10:46:28;;;;;;;3.85;1.77;;;22.90;99.90;;;;;;4994637;28;20069;-40
2023/09/17 10:48:56;;;;;;;2.10;1.40;;;22.90;99.90;;;;;;5011794;28;20061;-39
2023/09/17 10:51:22;;;;;;;2.83;1.40;;;22.90;99.90;;;;;;5011854;28;20072;-40
2023/09/17 10:53:47;;;;;;;2.85;1.40;;;22.90;99.90;;;;;;5012248;28;20022;-39
2023/09/17 10:56:14;;;;;;;2.92;1.70;;;22.90;99.90;;;;;;5011714;28;20029;-39
2023/09/17 10:58:43;;;;;;;2.90;1.50;;;22.90;99.90;;;;;;5011577;28;20427;-41
2023/09/17 11:01:12;;;;;;;2.22;1.50;;;22.90;99.90;;;;;;5011900;28;20041;-40
2023/09/17 11:03:44;;;;;;;2.95;1.63;;;22.90;99.90;;;;;;5011684;28;20472;-40
2023/09/17 11:06:16;;;;;;;2.25;1.55;;;22.90;99.90;;;;;;5011505;28;20033;-39
2023/09/17 11:08:45;;;;;;;2.53;1.58;;;22.90;99.90;;;;;;5011541;28;20026;-41
2023/09/17 11:11:14;;;;;;;3.92;1.65;;;22.90;99.90;;;;;;5011513;28;20026;-41
2023/09/17 11:13:43;;;;;;;3.08;1.50;;;22.90;99.90;;;;;;5011572;28;20022;-42
2023/09/17 11:16:08;;;;;;;3.00;1.70;;;23.00;99.90;;;;;;5011490;28;20100;-39
2023/09/17 11:18:34;;;;;;;1.80;1.30;;;22.90;99.90;;;;;;5011488;28;20476;-41
2023/09/17 11:21:10;;;;;;;2.28;1.30;;;22.90;99.90;;;;;;5011577;28;20026;-42
2023/09/17 11:23:44;;;;;;;2.08;1.40;;;23.00;99.90;;;;;;5011486;28;20028;-39
2023/09/17 11:26:15;;;;;;;1.88;1.40;;;23.00;99.90;;;;;;5012121;28;20206;-40
2023/09/17 11:28:44;;;;;;;1.65;1.30;;;23.00;99.90;;;;;;4995469;28;20129;-39
2023/09/17 11:31:14;;;;;;;4.13;1.35;;;23.00;99.90;;;;;;4979179;28;20026;-37
2023/09/17 11:33:42;;;;;;;2.17;1.40;;;22.90;99.90;;;;;;5011401;28;20475;-39
2023/09/17 11:36:08;;;;;;;1.38;1.17;;;23.00;99.90;;;;;;5011193;28;20664;-39
2023/09/17 11:38:34;;;;;;;1.63;1.40;;;23.00;99.90;;;;;;5011172;28;20041;-42
2023/09/17 11:41:09;;;;;;;3.47;1.42;;;23.00;99.90;;;;;;5011338;28;20030;-40
2023/09/17 11:43:45;;;;;;;2.90;1.58;;;23.00;99.90;;;;;;5011423;28;20022;-41
2023/09/17 11:46:12;;;;;;;2.40;1.50;;;23.00;99.90;;;;;;5011150;28;20110;-39
2023/09/17 11:48:39;;;;;;;1.95;1.48;;;23.00;99.90;;;;;;5013960;28;20030;-39
2023/09/17 11:51:21;;;;;;;4.57;1.67;;;23.00;99.90;;;;;;5015041;28;20383;-39
2023/09/17 11:53:55;;;;;;;2.35;1.27;;;23.00;99.90;;;;;;5015072;28;20026;-40
2023/09/17 11:56:21;;;;;;;3.97;1.70;;;23.00;99.90;;;;;;5014958;28;20554;-43
2023/09/17 11:59:01;;;;;;;2.40;1.38;;;23.00;99.90;;;;;;5014879;28;20047;-41
2023/09/17 12:01:29;;;;;;;2.40;1.33;;;23.10;99.90;;;;;;4997330;28;20038;-41
2023/09/17 12:03:55;;;;;;;2.17;1.30;;;23.00;99.90;;;;;;5014850;28;20084;-39
2023/09/17 12:06:21;;;;;;;2.92;1.42;;;23.10;99.90;;;;;;5014623;28;20105;-39
2023/09/17 12:08:48;;;;;;;2.78;1.40;;;23.00;99.90;;;;;;4997004;28;20113;-40
2023/09/17 12:11:21;;;;;;;2.28;1.42;;;23.10;99.90;;;;;;5014765;28;20057;-44
2023/09/17 12:13:56;;;;;;;2.15;1.10;;;23.00;99.90;;;;;;5014640;28;20057;-41
2023/09/17 12:16:26;;;;;;;2.42;1.40;;;23.10;99.90;;;;;;5014763;28;20021;-43
2023/09/17 12:18:53;;;;;;;2.40;1.60;;;23.10;99.90;;;;;;5014580;28;20026;-43
2023/09/17 12:21:24;;;;;;;2.67;1.42;;;23.00;99.90;;;;;;5014588;28;20038;-37
2023/09/17 12:29:34;;;;;;;1.40;1.30;;;23.00;99.90;;;;;;5008198;28;19964;-43
2023/09/17 12:32:00;;;;;;;2.20;1.40;;;23.10;99.90;;;;;;5014305;28;20041;-39
2023/09/17 12:34:26;;;;;;;2.22;1.48;;;23.00;99.90;;;;;;5014063;28;20501;-39
2023/09/17 12:36:51;;;;;;;2.20;1.50;;;23.10;99.90;;;;;;5014181;28;20022;-41
2023/09/17 12:39:17;;;;;;;3.45;1.67;;;23.00;99.90;;;;;;5014046;28;20076;-43
2023/09/17 12:41:43;;;;;;;5.75;1.73;;;23.00;99.90;;;;;;5014153;28;20026;-38
2023/09/17 12:44:10;;;;;;;2.88;1.40;;;23.10;99.90;;;;;;5014088;28;20045;-40
2023/09/17 12:46:36;;;;;;;3.25;1.75;;;23.00;99.90;;;;;;5013953;28;20030;-41
2023/09/17 12:49:03;;;;;;;2.00;1.30;;;23.10;99.90;;;;;;5013934;28;20100;-38
2023/09/17 12:51:30;;;;;;;4.38;1.40;;;23.00;99.90;;;;;;4996355;28;20403;-46